createdAt,value
2017-08-19T00:01:47.012Z,29.20
2017-08-19T00:04:15.532Z,30.20
2017-08-19T00:06:44.052Z,28.70
2017-08-19T00:09:12.623Z,24.13
2017-08-19T00:11:41.131Z,30.43
2017-08-19T00:14:09.684Z,31.70
2017-08-19T00:16:39.725Z,27.83
2017-08-19T00:19:09.801Z,29.50
2017-08-19T00:21:38.393Z,29.43
2017-08-19T00:24:07.092Z,30.60
2017-08-19T00:26:35.677Z,28.40
2017-08-19T00:29:04.372Z,29.60
2017-08-19T00:31:33.054Z,29.03
2017-08-19T00:34:01.752Z,30.97
2017-08-19T00:36:30.430Z,26.60
2017-08-19T00:38:59.205Z,33.50
2017-08-19T00:41:27.893Z,33.70
2017-08-19T00:43:56.681Z,33.43
2017-08-19T00:46:25.363Z,29.67
2017-08-19T00:48:54.092Z,26.00
2017-08-19T00:51:22.846Z,32.87
2017-08-19T00:53:51.628Z,34.80
2017-08-19T00:56:20.337Z,33.43
2017-08-19T00:58:49.104Z,28.70
2017-08-19T01:01:17.780Z,29.90
2017-08-19T01:03:46.468Z,32.10
2017-08-19T01:06:15.256Z,24.80
2017-08-19T01:08:43.941Z,31.93
2017-08-19T01:11:12.644Z,27.70
2017-08-19T01:13:41.348Z,29.90
2017-08-19T01:16:10.101Z,30.57
2017-08-19T01:18:38.801Z,27.63
2017-08-19T01:21:07.504Z,28.43
2017-08-19T01:23:36.225Z,28.90
2017-08-19T01:26:10.736Z,29.70
2017-08-19T01:28:39.461Z,29.67
2017-08-19T01:31:08.209Z,35.93
2017-08-19T01:33:37.030Z,31.47
2017-08-19T01:36:05.728Z,30.50
2017-08-19T01:38:34.569Z,27.13
2017-08-19T01:41:03.370Z,23.77
2017-08-19T01:43:32.079Z,28.10
2017-08-19T01:46:00.879Z,24.63
2017-08-19T01:48:29.568Z,26.20
2017-08-19T01:50:58.356Z,27.80
2017-08-19T01:53:27.028Z,27.90
2017-08-19T01:55:55.724Z,26.10
2017-08-19T01:58:24.409Z,19.43
2017-08-19T02:00:53.099Z,22.40
2017-08-19T02:03:21.793Z,23.47
2017-08-19T02:05:50.567Z,19.33
2017-08-19T02:08:19.351Z,22.20
2017-08-19T02:10:48.153Z,21.30
2017-08-19T02:13:16.941Z,25.23
2017-08-19T02:15:45.716Z,14.70
2017-08-19T02:18:14.433Z,14.50
2017-08-19T02:20:43.113Z,16.50
2017-08-19T02:23:11.879Z,16.03
2017-08-19T02:25:40.403Z,9.57
2017-08-19T02:28:08.976Z,12.40
2017-08-19T02:30:37.528Z,7.77
2017-08-19T02:33:06.103Z,15.10
2017-08-19T02:35:34.672Z,11.40
2017-08-19T02:38:03.280Z,10.30
2017-08-19T02:40:31.864Z,13.87
2017-08-19T02:43:00.561Z,11.30
2017-08-19T02:45:29.228Z,8.80
2017-08-19T02:47:57.840Z,12.13
2017-08-19T02:50:26.610Z,11.97
2017-08-19T02:52:55.300Z,10.37
2017-08-19T02:55:23.937Z,11.00
2017-08-19T02:57:52.564Z,11.43
2017-08-19T03:00:21.143Z,12.77
2017-08-19T03:02:49.823Z,10.80
2017-08-19T03:05:19.328Z,9.80
2017-08-19T03:07:47.928Z,10.03
2017-08-19T03:10:16.596Z,7.60
2017-08-19T03:12:47.105Z,15.30
2017-08-19T03:15:17.780Z,6.73
2017-08-19T03:17:48.196Z,8.43
2017-08-19T03:20:16.844Z,7.17
2017-08-19T03:22:45.385Z,6.70
2017-08-19T03:25:13.905Z,7.60
2017-08-19T03:27:42.420Z,12.30
2017-08-19T03:30:10.996Z,7.53
2017-08-19T03:32:39.546Z,13.57
2017-08-19T03:35:08.145Z,8.03
2017-08-19T03:37:36.661Z,12.60
2017-08-19T03:40:06.733Z,13.93
2017-08-19T03:42:35.244Z,11.23
2017-08-19T03:45:03.829Z,11.63
2017-08-19T03:47:32.404Z,12.70
2017-08-19T03:50:00.892Z,14.83
2017-08-19T03:52:29.428Z,14.90
2017-08-19T03:54:57.957Z,13.50
2017-08-19T03:57:26.504Z,9.30
2017-08-19T03:59:54.980Z,9.40
2017-08-19T04:02:25.141Z,11.80
2017-08-19T04:04:53.636Z,8.70
2017-08-19T04:07:22.141Z,23.17
2017-08-19T04:09:50.664Z,10.30
2017-08-19T04:12:19.173Z,16.47
2017-08-19T04:14:47.759Z,13.13
2017-08-19T04:17:16.261Z,12.83
2017-08-19T04:19:44.740Z,12.80
2017-08-19T04:22:13.239Z,12.93
2017-08-19T04:24:41.773Z,12.53
2017-08-19T04:27:10.273Z,7.70
2017-08-19T04:29:38.835Z,8.83
2017-08-19T04:32:07.340Z,11.13
2017-08-19T04:34:36.004Z,10.33
2017-08-19T04:37:04.576Z,10.80
2017-08-19T04:39:33.168Z,7.90
2017-08-19T04:42:01.756Z,11.47
2017-08-19T04:44:30.261Z,10.87
2017-08-19T04:46:59.840Z,10.87
2017-08-19T04:49:28.345Z,12.03
2017-08-19T04:51:56.921Z,11.90
2017-08-19T04:54:25.487Z,9.13
2017-08-19T04:56:54.157Z,6.30
2017-08-19T04:59:22.673Z,13.10
2017-08-19T05:01:51.227Z,7.73
2017-08-19T05:04:19.813Z,9.53
2017-08-19T05:06:48.309Z,8.57
2017-08-19T05:09:17.804Z,11.37
2017-08-19T05:11:46.375Z,8.07
2017-08-19T05:14:14.908Z,6.63
2017-08-19T05:16:43.432Z,9.03
2017-08-19T05:19:12.127Z,9.87
2017-08-19T05:21:40.624Z,6.90
2017-08-19T05:24:09.193Z,8.73
2017-08-19T05:26:39.308Z,10.23
2017-08-19T05:29:07.891Z,11.77
2017-08-19T05:31:36.393Z,19.03
2017-08-19T05:34:05.072Z,10.13
2017-08-19T05:36:33.656Z,14.87
2017-08-19T05:39:02.146Z,8.30
2017-08-19T05:41:30.712Z,9.73
2017-08-19T05:44:00.920Z,14.53
2017-08-19T05:46:29.460Z,9.53
2017-08-19T05:49:01.547Z,9.47
2017-08-19T05:51:30.061Z,10.67
2017-08-19T05:53:58.549Z,11.40
2017-08-19T05:56:28.764Z,10.23
2017-08-19T05:58:57.256Z,9.43
2017-08-19T06:01:25.750Z,12.60
2017-08-19T06:03:54.308Z,10.63
2017-08-19T06:06:22.952Z,7.67
2017-08-19T06:08:51.518Z,10.93
2017-08-19T06:11:20.160Z,9.80
2017-08-19T06:13:48.687Z,16.00
2017-08-19T06:16:18.627Z,10.07
2017-08-19T06:18:47.235Z,9.40
2017-08-19T06:21:17.355Z,7.30
2017-08-19T06:23:45.875Z,6.80
2017-08-19T06:26:14.420Z,11.53
2017-08-19T06:28:43.057Z,14.10
2017-08-19T06:31:11.604Z,8.40
2017-08-19T06:33:40.130Z,8.70
2017-08-19T06:36:08.857Z,11.00
2017-08-19T06:38:37.393Z,10.53
2017-08-19T06:41:05.904Z,10.07
2017-08-19T06:43:34.508Z,7.03
2017-08-19T06:46:03.079Z,9.20
2017-08-19T06:48:31.665Z,8.43
2017-08-19T06:51:01.618Z,17.80
2017-08-19T06:53:30.153Z,11.70
2017-08-19T06:55:58.753Z,9.33
2017-08-19T06:58:27.236Z,8.50
2017-08-19T07:00:57.211Z,4.83
2017-08-19T07:03:25.716Z,10.10
2017-08-19T07:05:54.204Z,6.03
2017-08-19T07:08:24.424Z,8.77
2017-08-19T07:10:52.932Z,11.10
2017-08-19T07:13:21.464Z,7.80
2017-08-19T07:15:49.979Z,10.47
2017-08-19T07:18:18.496Z,9.40
2017-08-19T07:20:47.001Z,11.43
2017-08-19T07:23:16.544Z,7.37
2017-08-19T07:25:45.033Z,9.23
2017-08-19T07:28:16.711Z,5.83
2017-08-19T07:30:45.232Z,11.63
2017-08-19T07:33:13.763Z,9.70
2017-08-19T07:35:42.283Z,10.63
2017-08-19T07:38:10.917Z,4.90
2017-08-19T07:40:39.598Z,11.37
2017-08-19T07:43:08.116Z,5.77
2017-08-19T07:45:36.605Z,11.07
2017-08-19T07:48:05.132Z,9.13
2017-08-19T07:50:37.547Z,8.13
2017-08-19T07:53:06.104Z,6.40
2017-08-19T07:55:34.612Z,8.77
2017-08-19T07:58:04.687Z,6.70
2017-08-19T08:00:33.188Z,5.87
2017-08-19T08:03:01.752Z,7.77
2017-08-19T08:05:30.257Z,10.37
2017-08-19T08:07:58.781Z,6.87
2017-08-19T08:10:27.286Z,5.70
2017-08-19T08:12:55.824Z,9.77
2017-08-19T08:15:26.002Z,8.00
2017-08-19T08:17:54.527Z,10.10
2017-08-19T08:20:23.043Z,15.93
2017-08-19T08:22:51.564Z,5.00
2017-08-19T08:25:20.134Z,6.93
2017-08-19T08:27:48.709Z,15.60
2017-08-19T08:30:17.308Z,10.03
2017-08-19T08:32:45.893Z,8.27
2017-08-19T08:35:14.384Z,7.00
2017-08-19T08:37:42.949Z,4.10
2017-08-19T08:40:13.050Z,8.30
2017-08-19T08:42:43.568Z,15.90
2017-08-19T08:45:12.263Z,6.50
2017-08-19T08:47:40.758Z,4.63
2017-08-19T08:50:11.187Z,8.43
2017-08-19T08:52:41.201Z,10.10
2017-08-19T08:55:09.784Z,5.57
2017-08-19T08:57:38.369Z,5.30
2017-08-19T09:00:06.889Z,9.63
2017-08-19T09:02:35.432Z,12.23
2017-08-19T09:05:03.957Z,12.93
2017-08-19T09:07:33.857Z,9.97
2017-08-19T09:10:04.535Z,8.23
2017-08-19T09:12:33.060Z,10.83
2017-08-19T09:15:03.178Z,5.13
2017-08-19T09:17:31.720Z,5.30
2017-08-19T09:20:00.207Z,7.63
2017-08-19T09:22:28.772Z,8.57
2017-08-19T09:24:59.213Z,7.90
2017-08-19T09:27:27.724Z,9.60
2017-08-19T09:29:56.219Z,14.10
2017-08-19T09:32:27.826Z,13.30
2017-08-19T09:34:56.307Z,6.10
2017-08-19T09:37:24.970Z,12.20
2017-08-19T09:39:55.580Z,12.93
2017-08-19T09:42:24.120Z,11.37
2017-08-19T09:44:52.612Z,16.03
2017-08-19T09:47:21.148Z,19.90
2017-08-19T09:49:51.078Z,20.50
2017-08-19T09:52:19.612Z,19.07
2017-08-19T09:54:51.870Z,20.93
2017-08-19T09:57:20.393Z,12.70
2017-08-19T09:59:48.886Z,12.20
2017-08-19T10:02:17.392Z,12.70
2017-08-19T10:04:46.853Z,11.93
2017-08-19T10:07:15.360Z,12.00
2017-08-19T10:09:46.590Z,10.60
2017-08-19T10:12:15.180Z,9.70
2017-08-19T10:14:43.659Z,15.43
2017-08-19T10:17:12.344Z,9.60
2017-08-19T10:19:40.820Z,17.40
2017-08-19T10:22:09.401Z,8.07
2017-08-19T10:24:37.920Z,6.67
2017-08-19T10:27:08.396Z,5.20
2017-08-19T10:29:36.894Z,5.10
2017-08-19T10:32:08.452Z,5.83
2017-08-19T10:34:37.956Z,5.03
2017-08-19T10:37:06.461Z,9.83
2017-08-19T10:39:35.152Z,12.00
2017-08-19T10:42:03.707Z,9.67
2017-08-19T10:44:32.352Z,4.50
2017-08-19T10:47:00.888Z,3.93
2017-08-19T10:49:29.467Z,5.33
2017-08-19T10:51:57.998Z,4.23
2017-08-19T10:54:26.548Z,7.37
2017-08-19T10:56:55.081Z,5.37
2017-08-19T10:59:23.631Z,4.10
2017-08-19T11:01:52.156Z,2.50
2017-08-19T11:04:20.744Z,4.33
2017-08-19T11:06:49.335Z,2.30
2017-08-19T11:09:17.892Z,3.90
2017-08-19T11:11:46.507Z,1.70
2017-08-19T11:14:15.044Z,3.60
2017-08-19T11:16:46.120Z,3.47
2017-08-19T11:19:15.860Z,4.37
2017-08-19T11:21:44.380Z,3.17
2017-08-19T11:24:12.908Z,4.00
2017-08-19T11:26:41.493Z,2.97
2017-08-19T11:29:10.159Z,4.20
2017-08-19T11:31:38.760Z,3.70
2017-08-19T11:34:07.428Z,3.87
2017-08-19T11:36:35.993Z,7.17
2017-08-19T11:39:04.615Z,1.47
2017-08-19T11:41:34.201Z,3.13
2017-08-19T11:44:02.792Z,4.23
2017-08-19T11:46:31.385Z,7.40
2017-08-19T11:49:00.156Z,2.67
2017-08-19T11:51:28.730Z,4.30
2017-08-19T11:53:57.340Z,6.67
2017-08-19T11:56:26.018Z,3.50
2017-08-19T11:58:54.782Z,4.10
2017-08-19T12:01:23.371Z,6.30
2017-08-19T12:03:52.029Z,10.03
2017-08-19T12:06:20.639Z,5.40
2017-08-19T12:08:49.429Z,2.40
2017-08-19T12:11:18.024Z,3.50
2017-08-19T12:13:46.621Z,5.27
2017-08-19T12:16:16.416Z,3.07
2017-08-19T12:18:44.965Z,4.90
2017-08-19T12:21:13.580Z,4.43
2017-08-19T12:23:42.140Z,4.80
2017-08-19T12:26:10.750Z,5.10
2017-08-19T12:28:39.345Z,3.27
2017-08-19T12:31:08.019Z,3.90
2017-08-19T12:33:36.601Z,4.97
2017-08-19T12:36:05.797Z,5.20
2017-08-19T12:38:35.324Z,5.33
2017-08-19T12:41:03.988Z,6.90
2017-08-19T12:43:32.531Z,3.40
2017-08-19T12:46:01.157Z,4.17
2017-08-19T12:48:29.727Z,6.70
2017-08-19T12:50:58.269Z,5.47
2017-08-19T12:53:26.848Z,7.70
2017-08-19T12:55:55.380Z,4.63
2017-08-19T12:58:23.931Z,5.93
2017-08-19T13:00:52.462Z,3.90
2017-08-19T13:03:21.004Z,3.10
2017-08-19T13:05:49.569Z,8.20
2017-08-19T13:08:19.124Z,5.97
2017-08-19T13:10:47.670Z,9.70
2017-08-19T13:13:16.233Z,4.17
2017-08-19T13:15:44.760Z,4.23
2017-08-19T13:18:13.418Z,4.27
2017-08-19T13:20:41.974Z,3.53
2017-08-19T13:23:10.480Z,7.63
2017-08-19T13:25:38.989Z,2.97
2017-08-19T13:28:07.577Z,9.60
2017-08-19T13:30:36.189Z,4.20
2017-08-19T13:33:04.849Z,4.23
2017-08-19T13:35:35.148Z,6.00
2017-08-19T13:38:03.756Z,1.63
2017-08-19T13:40:32.416Z,2.63
2017-08-19T13:43:01.146Z,1.53
2017-08-19T13:45:29.812Z,1.40
2017-08-19T13:47:58.420Z,3.70
2017-08-19T13:50:27.010Z,3.60
2017-08-19T13:52:55.716Z,3.03
2017-08-19T14:00:45.796Z,1.30
2017-08-19T14:03:15.403Z,3.10
2017-08-19T14:05:44.067Z,1.53
2017-08-19T14:08:12.592Z,2.10
2017-08-19T14:10:41.140Z,2.43
2017-08-19T14:13:11.143Z,2.60
2017-08-19T14:15:41.005Z,5.23
2017-08-19T14:18:09.942Z,4.67
2017-08-19T14:20:38.476Z,1.67
2017-08-19T14:23:07.167Z,1.37
2017-08-19T14:25:35.752Z,4.57
2017-08-19T14:28:04.487Z,3.60
2017-08-19T14:30:33.033Z,3.13
2017-08-19T14:33:01.674Z,1.73
2017-08-19T14:35:30.243Z,3.27
2017-08-19T14:37:58.819Z,2.50
2017-08-19T14:40:27.389Z,5.70
2017-08-19T14:42:55.988Z,1.40
2017-08-19T14:45:24.561Z,7.50
2017-08-19T14:47:53.361Z,3.43
2017-08-19T14:50:22.011Z,3.57
2017-08-19T14:52:50.820Z,3.50
2017-08-19T14:55:21.463Z,4.67
2017-08-19T14:57:50.279Z,2.93
2017-08-19T15:00:18.976Z,2.70
2017-08-19T15:02:47.707Z,3.90
2017-08-19T15:05:16.428Z,2.70
2017-08-19T15:07:45.208Z,5.80
2017-08-19T15:10:14.207Z,1.77
2017-08-19T15:12:43.815Z,3.27
2017-08-19T15:15:12.385Z,2.80
2017-08-19T15:17:40.891Z,7.10
2017-08-19T15:20:09.433Z,1.67
2017-08-19T15:22:38.032Z,5.87
2017-08-19T15:25:06.638Z,4.17
2017-08-19T15:27:35.216Z,5.20
2017-08-19T15:30:04.767Z,4.03
2017-08-19T15:32:34.902Z,2.93
2017-08-19T15:35:03.527Z,2.80
2017-08-19T15:37:32.043Z,5.60
2017-08-19T15:40:00.566Z,2.63
2017-08-19T15:42:30.873Z,5.27
2017-08-19T15:44:59.506Z,4.07
2017-08-19T15:47:28.045Z,5.13
2017-08-19T15:49:56.678Z,2.30
2017-08-19T15:52:25.323Z,2.67
2017-08-19T15:54:54.162Z,1.80
2017-08-19T15:57:22.914Z,4.27
2017-08-19T15:59:51.492Z,1.33
2017-08-19T16:02:19.981Z,1.27
2017-08-19T16:04:48.512Z,2.77
2017-08-19T16:07:17.037Z,5.77
2017-08-19T16:09:45.575Z,1.90
2017-08-19T16:12:14.072Z,1.90
2017-08-19T16:14:42.603Z,1.33
2017-08-19T16:17:11.191Z,6.00
2017-08-19T16:19:39.852Z,5.83
2017-08-19T16:22:08.536Z,0.80
2017-08-19T16:24:37.156Z,1.43
2017-08-19T16:27:07.301Z,1.60
2017-08-19T16:29:35.904Z,2.77
2017-08-19T16:32:04.509Z,6.57
2017-08-19T16:34:33.083Z,1.50
2017-08-19T16:37:01.679Z,3.43
2017-08-19T16:39:30.293Z,4.73
2017-08-19T16:42:02.741Z,1.33
2017-08-19T16:44:31.325Z,2.30
2017-08-19T16:46:59.899Z,1.90
2017-08-19T16:49:28.584Z,4.50
2017-08-19T16:51:57.154Z,4.73
2017-08-19T16:54:25.756Z,2.23
2017-08-19T16:56:55.255Z,2.20
2017-08-19T16:59:26.770Z,3.00
2017-08-19T17:01:55.381Z,2.47
2017-08-19T17:04:23.936Z,3.20
2017-08-19T17:06:52.541Z,7.37
2017-08-19T17:09:21.114Z,5.77
2017-08-19T17:11:49.824Z,2.90
2017-08-19T17:14:20.457Z,2.17
2017-08-19T17:16:49.120Z,2.60
2017-08-19T17:19:17.681Z,4.77
2017-08-19T17:21:47.148Z,2.60
2017-08-19T17:24:15.708Z,7.93
2017-08-19T17:26:44.501Z,4.30
2017-08-19T17:29:15.168Z,9.87
2017-08-19T17:31:44.545Z,3.63
2017-08-19T17:34:13.140Z,3.87
2017-08-19T17:36:42.577Z,3.77
2017-08-19T17:39:11.036Z,7.17
2017-08-19T17:41:43.641Z,2.83
2017-08-19T17:44:14.292Z,2.10
2017-08-19T17:46:42.895Z,4.00
2017-08-19T17:49:18.124Z,2.87
2017-08-19T17:51:51.012Z,2.63
2017-08-19T17:54:19.435Z,4.13
2017-08-19T17:56:50.021Z,2.80
2017-08-19T17:59:18.605Z,3.67
2017-08-19T18:01:48.973Z,6.10
2017-08-19T18:04:19.665Z,4.20
2017-08-19T18:06:50.100Z,3.53
2017-08-19T18:09:18.664Z,3.40
2017-08-19T18:11:51.247Z,3.70
2017-08-19T18:14:22.692Z,2.50
2017-08-19T18:16:51.164Z,5.60
2017-08-19T18:19:24.264Z,3.23
2017-08-19T18:21:52.759Z,8.90
2017-08-19T18:24:21.222Z,9.57
2017-08-19T18:26:49.705Z,5.27
2017-08-19T18:29:20.340Z,6.50
2017-08-19T18:31:50.747Z,8.50
2017-08-19T18:34:19.252Z,6.80
2017-08-19T18:36:54.176Z,6.87
2017-08-19T18:39:22.652Z,5.47
2017-08-19T18:41:51.209Z,6.43
2017-08-19T18:44:21.769Z,2.90
2017-08-19T18:46:52.508Z,4.87
2017-08-19T18:49:23.126Z,9.60
2017-08-19T18:51:51.699Z,3.67
2017-08-19T18:54:22.280Z,66.53
2017-08-19T18:56:57.999Z,6.23
2017-08-19T18:59:30.344Z,7.03
2017-08-19T19:02:04.801Z,3.17
2017-08-19T19:04:33.264Z,5.70
2017-08-19T19:07:05.986Z,8.60
2017-08-19T19:09:37.756Z,5.70
2017-08-19T19:12:11.204Z,7.30
2017-08-19T19:14:41.732Z,4.33
2017-08-19T19:17:12.128Z,8.33
2017-08-19T19:19:42.792Z,4.03
2017-08-19T19:22:13.338Z,12.40
2017-08-19T19:24:43.948Z,4.70
2017-08-19T19:27:16.538Z,6.20
2017-08-19T19:29:51.253Z,6.23
2017-08-19T19:32:19.705Z,3.53
2017-08-19T19:37:31.953Z,13.80
2017-08-19T19:40:00.379Z,3.93
2017-08-19T19:42:33.127Z,4.13
2017-08-19T19:45:01.685Z,5.30
2017-08-19T19:47:34.377Z,3.13
2017-08-19T19:50:06.947Z,4.87
2017-08-19T19:52:35.430Z,14.10
2017-08-19T19:55:08.132Z,5.10
2017-08-19T19:57:36.693Z,6.60
2017-08-19T20:00:07.181Z,7.13
2017-08-19T20:02:35.717Z,8.67
2017-08-19T20:05:04.393Z,4.20
2017-08-19T20:07:32.982Z,9.37
2017-08-19T20:10:01.473Z,10.60
2017-08-19T20:12:30.135Z,6.00
2017-08-19T20:14:58.721Z,8.80
2017-08-19T20:17:27.166Z,7.00
2017-08-19T20:19:55.654Z,11.67
2017-08-19T20:22:24.243Z,5.97
2017-08-19T20:24:55.945Z,14.43
2017-08-19T20:27:24.512Z,13.60
2017-08-19T20:29:52.986Z,16.70
2017-08-19T20:32:23.053Z,12.50
2017-08-19T20:34:51.576Z,5.53
2017-08-19T20:37:20.025Z,15.77
2017-08-19T20:39:48.489Z,8.47
2017-08-19T20:42:18.948Z,6.53
2017-08-19T20:44:51.421Z,5.67
2017-08-19T20:47:19.843Z,6.43
2017-08-19T20:49:48.409Z,5.63
2017-08-19T20:52:19.145Z,8.20
2017-08-19T20:54:53.993Z,7.97
2017-08-19T20:57:26.568Z,5.87
2017-08-19T20:59:55.017Z,6.30
2017-08-19T21:02:27.412Z,9.80
2017-08-19T21:05:00.178Z,6.93
2017-08-19T21:07:32.785Z,7.57
2017-08-19T21:10:05.632Z,7.93
2017-08-19T21:12:34.040Z,10.53
2017-08-19T21:15:04.743Z,7.83
2017-08-19T21:17:33.168Z,17.27
2017-08-19T21:20:03.864Z,6.90
2017-08-19T21:22:33.223Z,9.27
2017-08-19T21:25:08.422Z,12.10
2017-08-19T21:27:43.144Z,7.67
2017-08-19T21:30:11.589Z,14.00
2017-08-19T21:32:40.090Z,20.37
2017-08-19T21:35:10.425Z,35.23
2017-08-19T21:37:41.247Z,6.70
2017-08-19T21:40:12.539Z,8.60
2017-08-19T21:42:46.428Z,8.70
2017-08-19T21:45:21.435Z,9.30
2017-08-19T21:47:54.317Z,11.77
2017-08-19T21:50:26.709Z,9.17
2017-08-19T21:52:55.118Z,8.40
2017-08-19T21:55:29.240Z,13.20
2017-08-19T21:57:59.850Z,18.63
2017-08-19T22:00:32.493Z,10.60
2017-08-19T22:03:05.337Z,12.67
2017-08-19T22:05:42.520Z,12.07
2017-08-19T22:08:10.912Z,9.53
2017-08-19T22:10:48.005Z,13.27
2017-08-19T22:13:16.503Z,7.20
2017-08-19T22:15:53.688Z,9.07
2017-08-19T22:18:26.572Z,7.40
2017-08-19T22:20:56.589Z,11.80
2017-08-19T22:23:24.984Z,11.57
2017-08-19T22:25:56.532Z,10.57
2017-08-19T22:28:27.251Z,9.40
2017-08-19T22:30:57.865Z,10.80
2017-08-19T22:33:26.293Z,11.00
2017-08-19T22:35:54.710Z,10.30
2017-08-19T22:38:23.229Z,10.00
2017-08-19T22:40:57.829Z,9.10
2017-08-19T22:43:26.324Z,11.57
2017-08-19T22:45:59.001Z,13.50
2017-08-19T22:48:27.425Z,19.43
2017-08-19T22:50:57.864Z,8.83
2017-08-19T22:53:28.493Z,8.33
2017-08-19T22:55:59.057Z,11.00
2017-08-19T22:58:31.657Z,9.33
2017-08-19T23:01:05.594Z,11.97
2017-08-19T23:03:33.996Z,6.87
2017-08-19T23:06:02.381Z,9.70
2017-08-19T23:08:32.850Z,5.87
2017-08-19T23:11:02.963Z,10.10
2017-08-19T23:13:32.976Z,21.43
2017-08-19T23:16:01.362Z,12.27
2017-08-19T23:18:31.710Z,12.63
2017-08-19T23:21:06.511Z,11.83
2017-08-19T23:23:37.015Z,9.97
2017-08-19T23:26:05.411Z,10.90
2017-08-19T23:28:36.992Z,10.50
2017-08-19T23:31:11.803Z,10.67
2017-08-19T23:33:42.333Z,9.00
2017-08-19T23:36:12.929Z,13.57
2017-08-19T23:38:41.456Z,22.37
2017-08-19T23:41:12.076Z,7.60
2017-08-19T23:43:42.814Z,45.50
2017-08-19T23:46:15.776Z,10.53
2017-08-19T23:48:44.183Z,9.27
2017-08-19T23:51:18.787Z,16.37
2017-08-19T23:53:51.451Z,8.50
2017-08-19T23:56:22.072Z,16.03
2017-08-19T23:58:50.573Z,8.93
